createdAt,value
2018-04-19T03:32:36.279Z,16.87
2018-04-19T03:35:10.207Z,16.17
2018-04-19T03:37:44.855Z,16.73
2018-04-19T03:40:18.692Z,17.77
2018-04-19T03:42:52.475Z,17.00
2018-04-19T03:45:26.318Z,17.15
2018-04-19T03:48:00.929Z,17.17
2018-04-19T03:50:34.746Z,18.00
2018-04-19T03:53:09.361Z,16.65
2018-04-19T03:55:43.848Z,17.40
2018-04-19T03:58:34.759Z,16.85
2018-04-19T04:01:09.515Z,16.70
2018-04-19T04:03:44.144Z,15.70
2018-04-19T04:06:17.944Z,16.17
2018-04-19T04:08:51.848Z,16.75
2018-04-19T04:11:25.668Z,16.70
2018-04-19T04:14:00.178Z,16.77
2018-04-19T04:16:45.990Z,17.35
2018-04-19T04:19:33.359Z,15.65
2018-04-19T04:22:20.921Z,14.23
2018-04-19T04:24:54.767Z,16.30
2018-04-19T04:27:28.488Z,17.42
2018-04-19T04:30:02.328Z,16.23
2018-04-19T04:32:36.095Z,15.07
2018-04-19T04:35:09.782Z,14.95
2018-04-19T04:37:44.363Z,16.60
2018-04-19T04:40:19.406Z,16.70
2018-04-19T04:42:53.096Z,17.15
2018-04-19T04:45:26.964Z,17.58
2018-04-19T04:48:00.731Z,16.05
2018-04-19T04:50:34.578Z,17.00
2018-04-19T04:53:08.413Z,16.20
2018-04-19T04:55:43.066Z,18.20
2018-04-19T04:58:16.859Z,22.33
2018-04-19T05:00:51.507Z,17.17
2018-04-19T05:03:25.334Z,17.77
2018-04-19T05:05:59.926Z,18.45
2018-04-19T05:08:33.723Z,18.35
2018-04-19T05:11:08.936Z,19.23
2018-04-19T05:13:43.568Z,17.15
2018-04-19T05:16:17.509Z,20.30
2018-04-19T05:18:51.306Z,18.23
2018-04-19T05:21:25.092Z,18.73
2018-04-19T05:23:58.875Z,18.17
2018-04-19T05:26:32.734Z,16.87
2018-04-19T05:29:07.241Z,17.95
2018-04-19T05:31:40.969Z,17.48
2018-04-19T05:34:15.610Z,18.30
2018-04-19T05:36:49.393Z,17.42
2018-04-19T05:39:23.520Z,19.05
2018-04-19T05:41:59.231Z,20.67
2018-04-19T05:44:33.704Z,18.15
2018-04-19T05:47:07.471Z,18.90
2018-04-19T05:49:41.328Z,20.00
2018-04-19T05:52:15.231Z,19.60
2018-04-19T05:54:53.487Z,21.08
2018-04-19T05:57:27.156Z,20.25
2018-04-19T06:00:02.946Z,21.20
2018-04-19T06:02:37.582Z,20.62
2018-04-19T06:05:11.431Z,21.25
2018-04-19T06:07:45.192Z,21.92
2018-04-19T06:10:18.980Z,22.67
2018-04-19T06:12:52.845Z,22.10
2018-04-19T06:15:26.718Z,22.80
2018-04-19T06:18:00.559Z,24.10
2018-04-19T06:20:34.410Z,23.17
2018-04-19T06:23:09.981Z,23.42
2018-04-19T06:25:43.822Z,23.17
2018-04-19T06:28:18.006Z,22.95
2018-04-19T06:30:52.527Z,22.98
2018-04-19T06:33:28.771Z,23.67
2018-04-19T06:36:02.698Z,23.98
2018-04-19T06:38:37.998Z,25.48
2018-04-19T06:41:12.533Z,22.62
2018-04-19T06:43:46.366Z,23.50
2018-04-19T06:46:20.145Z,23.02
2018-04-19T06:48:54.029Z,23.27
2018-04-19T06:51:27.782Z,21.65
2018-04-19T06:54:06.626Z,22.77
2018-04-19T06:56:40.322Z,22.50
2018-04-19T06:59:14.339Z,23.02
2018-04-19T07:01:48.831Z,21.73
2018-04-19T07:04:24.638Z,18.95
2018-04-19T07:06:58.402Z,18.30
2018-04-19T07:09:32.271Z,19.95
2018-04-19T07:12:06.135Z,19.10
2018-04-19T07:14:41.238Z,20.02
2018-04-19T07:17:15.096Z,15.98
2018-04-19T07:19:48.967Z,16.45
2018-04-19T07:22:23.607Z,14.23
2018-04-19T07:24:59.079Z,13.15
2018-04-19T07:27:32.851Z,13.18
2018-04-19T07:30:07.731Z,13.27
2018-04-19T07:32:41.489Z,11.73
2018-04-19T07:35:15.300Z,13.38
2018-04-19T07:37:49.612Z,11.90
2018-04-19T07:40:24.119Z,13.10
2018-04-19T07:42:57.851Z,12.32
2018-04-19T07:45:31.574Z,12.48
2018-04-19T07:48:05.415Z,12.45
2018-04-19T07:50:40.070Z,10.57
2018-04-19T07:53:13.791Z,10.90
2018-04-19T07:55:48.390Z,10.77
2018-04-19T07:58:22.201Z,11.18
2018-04-19T08:00:57.139Z,9.93
2018-04-19T08:03:30.843Z,10.60
2018-04-19T08:06:05.014Z,10.15
2018-04-19T08:08:38.828Z,9.50
2018-04-19T08:11:13.449Z,9.98
2018-04-19T08:13:47.879Z,9.40
2018-04-19T08:16:22.719Z,8.70
2018-04-19T08:18:56.464Z,8.15
2018-04-19T08:21:30.279Z,8.40
2018-04-19T08:24:05.034Z,7.80
2018-04-19T08:26:39.607Z,6.87
2018-04-19T08:29:13.451Z,8.53
2018-04-19T08:31:48.090Z,8.20
2018-04-19T08:34:22.355Z,7.37
2018-04-19T08:36:56.328Z,8.03
2018-04-19T08:39:30.231Z,7.30
2018-04-19T08:42:04.044Z,8.17
2018-04-19T08:44:39.473Z,6.97
2018-04-19T08:47:14.011Z,7.20
2018-04-19T08:49:47.903Z,6.80
2018-04-19T08:52:21.963Z,6.73
2018-04-19T08:54:56.073Z,7.37
2018-04-19T08:57:30.014Z,7.00
2018-04-19T09:00:03.738Z,8.10
2018-04-19T09:02:38.324Z,6.60
2018-04-19T09:05:13.076Z,7.00
2018-04-19T09:07:46.814Z,6.70
2018-04-19T09:10:20.615Z,6.47
2018-04-19T09:12:57.419Z,6.67
2018-04-19T09:15:33.489Z,6.83
2018-04-19T09:18:08.120Z,6.23
2018-04-19T09:20:43.943Z,6.43
2018-04-19T09:23:19.201Z,5.57
2018-04-19T09:25:53.712Z,5.63
2018-04-19T09:28:28.847Z,6.10
2018-04-19T09:31:02.695Z,5.47
2018-04-19T09:33:36.654Z,6.00
2018-04-19T09:36:10.887Z,5.47
2018-04-19T09:38:44.692Z,6.10
2018-04-19T09:41:18.570Z,5.97
2018-04-19T09:43:52.408Z,6.03
2018-04-19T09:46:26.279Z,5.70
2018-04-19T09:49:00.636Z,5.37
2018-04-19T09:51:35.549Z,5.40
2018-04-19T09:54:09.419Z,5.40
2018-04-19T09:56:44.220Z,5.17
2018-04-19T09:59:21.973Z,5.47
2018-04-19T10:02:01.422Z,6.00
2018-04-19T10:04:35.320Z,5.87
2018-04-19T10:07:10.306Z,5.20
2018-04-19T10:09:44.126Z,5.97
2018-04-19T10:12:17.895Z,5.63
2018-04-19T10:14:51.595Z,6.67
2018-04-19T10:17:25.485Z,6.10
2018-04-19T10:19:59.357Z,6.70
2018-04-19T10:22:33.910Z,5.53
2018-04-19T10:25:09.707Z,5.50
2018-04-19T10:27:45.624Z,6.10
2018-04-19T10:30:19.484Z,6.00
2018-04-19T10:32:53.352Z,5.60
2018-04-19T10:35:28.725Z,5.27
2018-04-19T10:38:02.355Z,6.57
2018-04-19T10:40:38.130Z,5.70
2018-04-19T10:43:12.149Z,6.37
2018-04-19T10:45:45.927Z,5.47
2018-04-19T10:48:19.695Z,5.70
2018-04-19T10:50:53.407Z,4.70
2018-04-19T10:53:29.851Z,5.80
2018-04-19T10:56:03.611Z,5.40
2018-04-19T10:58:37.358Z,5.43
2018-04-19T11:01:10.992Z,4.90
2018-04-19T11:03:44.803Z,5.07
2018-04-19T11:06:18.603Z,5.50
2018-04-19T11:08:52.374Z,6.10
2018-04-19T11:11:26.915Z,5.80
2018-04-19T11:14:00.662Z,5.83
2018-04-19T11:16:34.559Z,6.37
2018-04-19T11:19:08.274Z,6.83
2018-04-19T11:21:42.033Z,6.47
2018-04-19T11:24:15.622Z,6.13
2018-04-19T11:26:49.478Z,7.57
2018-04-19T11:29:23.279Z,8.70
2018-04-19T11:31:57.877Z,9.97
2018-04-19T11:34:31.722Z,6.73
2018-04-19T11:37:06.585Z,6.83
2018-04-19T11:39:40.494Z,6.33
2018-04-19T11:42:14.451Z,5.50
2018-04-19T11:44:48.944Z,6.90
2018-04-19T11:47:23.828Z,6.40
2018-04-19T11:49:57.668Z,6.60
2018-04-19T11:52:31.444Z,6.83
2018-04-19T11:55:06.008Z,7.07
2018-04-19T11:57:39.778Z,7.60
2018-04-19T12:00:14.758Z,6.23
2018-04-19T12:02:48.574Z,7.10
2018-04-19T12:05:22.403Z,13.00
2018-04-19T12:07:56.229Z,8.30
2018-04-19T12:10:29.991Z,8.53
2018-04-19T12:13:04.628Z,8.63
2018-04-19T12:15:38.430Z,8.20
2018-04-19T12:18:13.042Z,7.13
2018-04-19T12:20:47.015Z,7.57
2018-04-19T12:23:22.395Z,8.50
2018-04-19T12:25:56.787Z,9.33
2018-04-19T12:28:30.563Z,9.37
2018-04-19T12:31:04.303Z,8.30
2018-04-19T12:33:39.550Z,9.27
2018-04-19T12:36:14.680Z,9.50
2018-04-19T12:38:48.591Z,8.40
2018-04-19T12:41:22.338Z,9.47
2018-04-19T12:43:57.072Z,8.97
2018-04-19T12:46:30.864Z,8.67
2018-04-19T12:49:05.471Z,9.20
2018-04-19T12:51:40.094Z,8.63
2018-04-19T12:54:13.883Z,8.60
2018-04-19T12:56:47.742Z,9.17
2018-04-19T12:59:22.440Z,11.70
2018-04-19T13:01:56.244Z,11.80
2018-04-19T13:04:30.076Z,8.30
2018-04-19T13:07:03.836Z,9.67
2018-04-19T13:09:37.874Z,9.57
2018-04-19T13:12:11.695Z,9.63
2018-04-19T13:14:45.491Z,9.70
2018-04-19T13:17:19.404Z,9.10
2018-04-19T13:19:54.341Z,8.60
2018-04-19T13:22:28.191Z,10.77
2018-04-19T13:25:02.344Z,9.20
2018-04-19T13:27:36.159Z,10.33
2018-04-19T13:30:09.999Z,9.57
2018-04-19T13:32:44.408Z,10.00
2018-04-19T13:35:19.118Z,11.43
2018-04-19T13:37:54.434Z,10.70
2018-04-19T13:40:28.284Z,8.30
2018-04-19T13:43:03.136Z,8.97
2018-04-19T13:45:37.047Z,9.10
2018-04-19T13:48:11.605Z,9.07
2018-04-19T13:50:45.334Z,9.30
2018-04-19T13:53:19.178Z,11.07
2018-04-19T13:55:52.987Z,8.77
2018-04-19T13:58:27.446Z,9.27
2018-04-19T14:01:05.154Z,7.90
2018-04-19T14:03:40.783Z,8.17
2018-04-19T14:06:14.493Z,9.33
2018-04-19T14:08:48.329Z,10.50
2018-04-19T14:11:22.002Z,8.60
2018-04-19T14:13:55.838Z,8.80
2018-04-19T14:16:29.432Z,8.77
2018-04-19T14:19:04.016Z,9.33
2018-04-19T14:21:39.455Z,8.80
2018-04-19T14:24:13.114Z,7.70
2018-04-19T14:26:47.019Z,7.57
2018-04-19T14:29:21.611Z,9.93
2018-04-19T14:31:56.490Z,9.20
2018-04-19T14:34:30.236Z,8.60
2018-04-19T14:37:05.111Z,8.33
2018-04-19T14:39:38.910Z,7.80
2018-04-19T14:42:12.692Z,9.83
2018-04-19T14:44:47.437Z,8.73
2018-04-19T14:47:21.268Z,8.23
2018-04-19T14:49:55.004Z,9.50
2018-04-19T14:52:28.755Z,9.47
2018-04-19T14:55:02.547Z,8.70
2018-04-19T14:57:36.397Z,8.50
2018-04-19T15:00:10.182Z,9.97
2018-04-19T15:02:44.839Z,7.90
2018-04-19T15:05:19.506Z,8.37
2018-04-19T15:07:53.330Z,7.67
2018-04-19T15:10:30.806Z,7.67
2018-04-19T15:13:04.631Z,8.10
2018-04-19T15:15:41.459Z,7.30
2018-04-19T15:18:15.253Z,7.40
2018-04-19T15:20:50.876Z,7.00
2018-04-19T15:23:24.667Z,7.43
2018-04-19T15:25:59.514Z,7.87
2018-04-19T15:28:33.363Z,7.90
2018-04-19T15:31:08.854Z,7.37
2018-04-19T15:33:42.659Z,7.43
2018-04-19T15:36:16.475Z,8.13
2018-04-19T15:38:50.315Z,7.47
2018-04-19T15:41:25.011Z,7.10
2018-04-19T15:43:59.519Z,7.40
2018-04-19T15:46:34.037Z,6.40
2018-04-19T15:49:07.763Z,7.30
2018-04-19T15:51:42.400Z,6.90
2018-04-19T15:54:16.169Z,7.27
2018-04-19T15:56:50.022Z,7.33
2018-04-19T15:59:23.873Z,6.90
2018-04-19T16:01:57.744Z,7.30
2018-04-19T16:04:31.463Z,7.73
2018-04-19T16:07:05.622Z,6.50
2018-04-19T16:09:39.602Z,6.90
2018-04-19T16:12:14.167Z,6.23
2018-04-19T16:14:48.746Z,6.77
2018-04-19T16:17:23.204Z,5.80
2018-04-19T16:19:56.954Z,5.90
2018-04-19T16:22:30.914Z,6.20
2018-04-19T16:25:05.512Z,5.30
2018-04-19T16:27:40.406Z,7.03
2018-04-19T16:30:15.025Z,8.07
2018-04-19T16:32:49.748Z,5.97
2018-04-19T16:35:23.406Z,5.40
2018-04-19T16:37:57.279Z,5.50
2018-04-19T16:40:31.064Z,5.33
2018-04-19T16:43:05.669Z,5.10
2018-04-19T16:45:39.565Z,5.50
2018-04-19T16:48:16.112Z,6.30
2018-04-19T16:50:49.840Z,4.73
2018-04-19T16:53:23.674Z,5.67
2018-04-19T16:55:58.256Z,5.53
2018-04-19T16:58:32.679Z,7.80
2018-04-19T17:01:06.763Z,12.50
2018-04-19T17:03:43.843Z,11.90
2018-04-19T17:06:18.396Z,4.93
2018-04-19T17:08:52.919Z,5.00
2018-04-19T17:11:26.904Z,5.77
2018-04-19T17:14:01.975Z,4.83
2018-04-19T17:16:35.787Z,7.53
2018-04-19T17:19:09.607Z,5.80
2018-04-19T17:21:43.489Z,5.93
2018-04-19T17:24:17.275Z,5.30
2018-04-19T17:26:51.851Z,5.43
2018-04-19T17:29:25.669Z,6.63
2018-04-19T17:31:59.539Z,5.63
2018-04-19T17:34:34.169Z,6.00
2018-04-19T17:37:07.919Z,6.00
2018-04-19T17:39:42.571Z,6.07
2018-04-19T17:42:16.435Z,5.97
2018-04-19T17:44:55.111Z,10.17
2018-04-19T17:47:29.613Z,5.73
2018-04-19T17:50:03.515Z,6.57
2018-04-19T17:52:37.409Z,13.50
2018-04-19T17:55:11.967Z,10.67
2018-04-19T17:57:46.142Z,11.17
2018-04-19T18:00:20.008Z,5.67
2018-04-19T18:02:53.908Z,6.50
2018-04-19T18:05:27.786Z,8.70
2018-04-19T18:08:02.573Z,10.43
2018-04-19T18:10:36.349Z,6.40
2018-04-19T18:13:10.227Z,7.60
2018-04-19T18:15:44.032Z,8.00
2018-04-19T18:18:18.687Z,6.23
2018-04-19T18:20:52.328Z,7.00
2018-04-19T18:23:26.933Z,7.53
2018-04-19T18:26:01.570Z,6.57
2018-04-19T18:28:35.468Z,7.53
2018-04-19T18:31:09.363Z,8.87
2018-04-19T18:33:43.885Z,7.43
2018-04-19T18:36:18.471Z,6.40
2018-04-19T18:38:52.262Z,7.40
2018-04-19T18:41:26.854Z,6.70
2018-04-19T18:44:01.687Z,7.20
2018-04-19T18:46:37.277Z,7.20
2018-04-19T18:49:11.107Z,7.13
2018-04-19T18:51:44.996Z,7.10
2018-04-19T18:54:18.791Z,6.90
2018-04-19T18:56:52.602Z,7.00
2018-04-19T18:59:27.250Z,7.20
2018-04-19T19:02:01.797Z,7.03
2018-04-19T19:04:35.612Z,7.30
2018-04-19T19:07:09.347Z,6.90
2018-04-19T19:09:43.138Z,8.13
2018-04-19T19:12:17.749Z,9.00
2018-04-19T19:14:51.607Z,7.10
2018-04-19T19:17:37.394Z,8.23
2018-04-19T19:20:12.839Z,8.53
2018-04-19T19:22:46.513Z,6.80
2018-04-19T19:25:21.083Z,7.87
2018-04-19T19:27:54.919Z,9.40
2018-04-19T19:30:29.420Z,8.20
2018-04-19T19:33:06.432Z,8.10
2018-04-19T19:35:41.192Z,7.73
2018-04-19T19:38:16.069Z,8.10
2018-04-19T19:40:51.395Z,8.00
2018-04-19T19:43:25.919Z,8.30
2018-04-19T19:46:00.552Z,7.80
2018-04-19T19:48:34.451Z,6.15
2018-04-19T19:51:08.284Z,7.00
2018-04-19T19:53:43.003Z,6.97
2018-04-19T19:56:16.910Z,7.03
2018-04-19T19:58:51.547Z,7.43
2018-04-19T20:01:25.366Z,7.30
2018-04-19T20:04:00.191Z,6.18
2018-04-19T20:06:34.040Z,6.55
2018-04-19T20:09:08.620Z,7.10
2018-04-19T20:11:42.368Z,6.45
2018-04-19T20:14:17.054Z,8.40
2018-04-19T20:16:50.824Z,7.80
2018-04-19T20:19:26.104Z,7.77
2018-04-19T20:21:59.974Z,7.70
2018-04-19T20:24:34.407Z,7.15
2018-04-19T20:27:08.305Z,7.25
2018-04-19T20:29:42.127Z,7.93
2018-04-19T20:32:15.871Z,8.35
2018-04-19T20:34:50.376Z,8.90
2018-04-19T20:37:24.947Z,7.90
2018-04-19T20:39:58.723Z,8.00
2018-04-19T20:42:32.566Z,8.32
2018-04-19T20:45:06.158Z,7.35
2018-04-19T20:47:40.056Z,7.70
2018-04-19T20:50:13.874Z,8.10
2018-04-19T20:52:47.798Z,8.32
2018-04-19T20:55:22.271Z,7.50
2018-04-19T20:57:56.855Z,8.05
